sensor_id;sensor_type;location;lat;lon;timestamp;pressure;altitude;pressure_sealevel;temperature;humidity
38227;BME280;24026;49.446;8.576;2023-07-20T06:43:54;100412.84;;;24.09;41.48
38227;BME280;24026;49.446;8.576;2023-07-20T06:46:18;100414.69;;;24.17;41.46
38227;BME280;24026;49.446;8.576;2023-07-20T06:48:38;100408.75;;;24.24;41.45
38227;BME280;24026;49.446;8.576;2023-07-20T06:50:59;100405.94;;;24.33;41.33
38227;BME280;24026;49.446;8.576;2023-07-20T06:53:19;100412.06;;;24.42;40.99
38227;BME280;24026;49.446;8.576;2023-07-20T06:55:42;100410.84;;;24.52;40.96
38227;BME280;24026;49.446;8.576;2023-07-20T06:58:02;100412.28;;;24.58;40.85
38227;BME280;24026;49.446;8.576;2023-07-20T07:00:23;100412.50;;;24.65;40.69
38227;BME280;24026;49.446;8.576;2023-07-20T07:02:43;100410.38;;;24.71;40.57
38227;BME280;24026;49.446;8.576;2023-07-20T07:05:04;100414.00;;;24.75;40.41
38227;BME280;24026;49.446;8.576;2023-07-20T07:07:25;100410.28;;;24.80;40.39
38227;BME280;24026;49.446;8.576;2023-07-20T07:09:45;100405.41;;;24.85;40.03
38227;BME280;24026;49.446;8.576;2023-07-20T07:12:06;100404.28;;;24.86;39.92
38227;BME280;24026;49.446;8.576;2023-07-20T07:14:29;100409.50;;;24.91;39.93
38227;BME280;24026;49.446;8.576;2023-07-20T07:16:49;100410.41;;;24.95;39.60
38227;BME280;24026;49.446;8.576;2023-07-20T07:19:10;100403.84;;;24.96;39.56
38227;BME280;24026;49.446;8.576;2023-07-20T07:21:31;100402.84;;;25.01;39.74
38227;BME280;24026;49.446;8.576;2023-07-20T07:23:51;100404.06;;;25.04;39.48
38227;BME280;24026;49.446;8.576;2023-07-20T07:26:14;100406.13;;;25.07;39.39
38227;BME280;24026;49.446;8.576;2023-07-20T07:28:34;100405.44;;;25.10;39.13
38227;BME280;24026;49.446;8.576;2023-07-20T07:30:55;100409.38;;;25.12;39.07
38227;BME280;24026;49.446;8.576;2023-07-20T07:33:17;100404.44;;;25.14;38.93
38227;BME280;24026;49.446;8.576;2023-07-20T07:35:38;100405.66;;;25.17;38.74
38227;BME280;24026;49.446;8.576;2023-07-20T07:37:59;100411.53;;;25.19;38.47
38227;BME280;24026;49.446;8.576;2023-07-20T07:40:19;100412.34;;;25.20;38.63
38227;BME280;24026;49.446;8.576;2023-07-20T07:42:39;100409.31;;;25.21;38.36
38227;BME280;24026;49.446;8.576;2023-07-20T07:45:00;100403.19;;;25.24;38.19
38227;BME280;24026;49.446;8.576;2023-07-20T07:47:20;100410.66;;;25.27;38.04
38227;BME280;24026;49.446;8.576;2023-07-20T07:49:41;100413.38;;;25.27;37.73
38227;BME280;24026;49.446;8.576;2023-07-20T07:52:01;100406.81;;;25.28;37.64
38227;BME280;24026;49.446;8.576;2023-07-20T07:54:24;100411.47;;;25.28;37.51
38227;BME280;24026;49.446;8.576;2023-07-20T07:56:45;100407.94;;;25.27;37.75
38227;BME280;24026;49.446;8.576;2023-07-20T07:59:05;100410.66;;;25.27;37.41
38227;BME280;24026;49.446;8.576;2023-07-20T08:01:26;100411.47;;;25.28;37.26
38227;BME280;24026;49.446;8.576;2023-07-20T08:03:46;100412.72;;;25.30;37.11
38227;BME280;24026;49.446;8.576;2023-07-20T08:06:07;100410.44;;;25.32;37.11
38227;BME280;24026;49.446;8.576;2023-07-20T08:08:28;100398.88;;;25.36;37.07
38227;BME280;24026;49.446;8.576;2023-07-20T08:10:48;100407.50;;;25.38;36.88
38227;BME280;24026;49.446;8.576;2023-07-20T08:13:09;100402.53;;;25.40;36.79
38227;BME280;24026;49.446;8.576;2023-07-20T08:15:29;100410.69;;;25.40;36.68
38227;BME280;24026;49.446;8.576;2023-07-20T08:17:49;100406.81;;;25.41;36.50
38227;BME280;24026;49.446;8.576;2023-07-20T08:20:13;100407.28;;;25.43;36.77
38227;BME280;24026;49.446;8.576;2023-07-20T08:22:33;100413.50;;;25.43;36.61
38227;BME280;24026;49.446;8.576;2023-07-20T08:24:53;100413.94;;;25.45;36.30
38227;BME280;24026;49.446;8.576;2023-07-20T08:27:14;100416.66;;;25.45;36.53
38227;BME280;24026;49.446;8.576;2023-07-20T08:29:35;100410.09;;;25.46;36.54
38227;BME280;24026;49.446;8.576;2023-07-20T08:31:55;100414.41;;;25.47;36.62
38227;BME280;24026;49.446;8.576;2023-07-20T08:34:16;100415.22;;;25.48;36.53
38227;BME280;24026;49.446;8.576;2023-07-20T08:36:36;100417.59;;;25.49;36.53
38227;BME280;24026;49.446;8.576;2023-07-20T08:38:57;100416.09;;;25.52;36.22
38227;BME280;24026;49.446;8.576;2023-07-20T08:41:18;100415.31;;;25.51;36.24
38227;BME280;24026;49.446;8.576;2023-07-20T08:43:42;100413.81;;;25.54;35.81
38227;BME280;24026;49.446;8.576;2023-07-20T08:46:04;100413.81;;;25.54;35.86
38227;BME280;24026;49.446;8.576;2023-07-20T08:48:26;100416.19;;;25.56;35.72
38227;BME280;24026;49.446;8.576;2023-07-20T08:50:49;100412.34;;;25.57;35.70
38227;BME280;24026;49.446;8.576;2023-07-20T08:53:12;100413.59;;;25.59;35.67
38227;BME280;24026;49.446;8.576;2023-07-20T08:55:34;100414.75;;;25.58;35.51
38227;BME280;24026;49.446;8.576;2023-07-20T08:57:59;100407.81;;;25.61;35.47
38227;BME280;24026;49.446;8.576;2023-07-20T09:00:22;100418.34;;;25.62;35.51
38227;BME280;24026;49.446;8.576;2023-07-20T09:02:45;100415.63;;;25.62;35.36
38227;BME280;24026;49.446;8.576;2023-07-20T09:05:07;100418.34;;;25.62;35.43
38227;BME280;24026;49.446;8.576;2023-07-20T09:07:28;100412.56;;;25.64;35.36
38227;BME280;24026;49.446;8.576;2023-07-20T09:09:49;100410.28;;;25.66;35.40
38227;BME280;24026;49.446;8.576;2023-07-20T09:12:15;100408.38;;;25.66;35.31
38227;BME280;24026;49.446;8.576;2023-07-20T09:14:39;100409.94;;;25.67;35.70
38227;BME280;24026;49.446;8.576;2023-07-20T09:16:59;100404.16;;;25.69;35.62
38227;BME280;24026;49.446;8.576;2023-07-20T09:19:20;100404.97;;;25.69;35.43
38227;BME280;24026;49.446;8.576;2023-07-20T09:21:41;100403.03;;;25.70;35.54
38227;BME280;24026;49.446;8.576;2023-07-20T09:24:01;100408.13;;;25.72;35.78
38227;BME280;24026;49.446;8.576;2023-07-20T09:26:21;100399.97;;;25.72;35.21
38227;BME280;24026;49.446;8.576;2023-07-20T09:28:52;100397.25;;;25.72;35.35
38227;BME280;24026;49.446;8.576;2023-07-20T09:31:17;100396.56;;;25.75;35.17
38227;BME280;24026;49.446;8.576;2023-07-20T09:33:38;100407.91;;;25.77;35.57
38227;BME280;24026;49.446;8.576;2023-07-20T09:36:02;100402.91;;;25.79;35.15
38227;BME280;24026;49.446;8.576;2023-07-20T09:38:26;100396.34;;;25.80;34.93
38227;BME280;24026;49.446;8.576;2023-07-20T09:40:46;100407.66;;;25.82;34.97
38227;BME280;24026;49.446;8.576;2023-07-20T09:43:10;100400.75;;;25.84;34.94
38227;BME280;24026;49.446;8.576;2023-07-20T09:45:41;100399.59;;;25.85;35.12
38227;BME280;24026;49.446;8.576;2023-07-20T09:48:09;100405.03;;;25.85;34.92
38227;BME280;24026;49.446;8.576;2023-07-20T09:50:29;100405.81;;;25.86;34.97
38227;BME280;24026;49.446;8.576;2023-07-20T09:52:49;100403.09;;;25.86;34.47
38227;BME280;24026;49.446;8.576;2023-07-20T09:55:10;100401.19;;;25.86;34.60
38227;BME280;24026;49.446;8.576;2023-07-20T09:57:35;100396.09;;;25.85;34.52
38227;BME280;24026;49.446;8.576;2023-07-20T09:59:56;100389.50;;;25.86;34.46
38227;BME280;24026;49.446;8.576;2023-07-20T10:02:25;100398.03;;;25.84;34.28
38227;BME280;24026;49.446;8.576;2023-07-20T10:04:46;100398.81;;;25.85;34.46
38227;BME280;24026;49.446;8.576;2023-07-20T10:07:10;100398.47;;;25.86;34.19
38227;BME280;24026;49.446;8.576;2023-07-20T10:09:35;100391.09;;;25.87;34.47
38227;BME280;24026;49.446;8.576;2023-07-20T10:11:58;100388.03;;;25.88;34.34
38227;BME280;24026;49.446;8.576;2023-07-20T10:14:20;100385.75;;;25.91;34.24
38227;BME280;24026;49.446;8.576;2023-07-20T10:16:50;100392.44;;;25.93;34.18
38227;BME280;24026;49.446;8.576;2023-07-20T10:19:18;100382.34;;;25.94;34.27
38227;BME280;24026;49.446;8.576;2023-07-20T10:21:47;100385.53;;;25.96;34.30
38227;BME280;24026;49.446;8.576;2023-07-20T10:24:09;100381.69;;;25.97;34.03
38227;BME280;24026;49.446;8.576;2023-07-20T10:26:31;100377.34;;;25.96;34.15
38227;BME280;24026;49.446;8.576;2023-07-20T10:28:53;100381.69;;;25.97;33.86
38227;BME280;24026;49.446;8.576;2023-07-20T10:31:14;100375.88;;;25.98;33.81
38227;BME280;24026;49.446;8.576;2023-07-20T10:33:39;100373.59;;;26.00;33.92
38227;BME280;24026;49.446;8.576;2023-07-20T10:36:02;100371.66;;;26.01;33.62
38227;BME280;24026;49.446;8.576;2023-07-20T10:38:53;100375.09;;;25.98;33.64
38227;BME280;24026;49.446;8.576;2023-07-20T10:41:34;100367.47;;;26.03;33.72
38227;BME280;24026;49.446;8.576;2023-07-20T10:44:00;100365.97;;;26.06;33.83
38227;BME280;24026;49.446;8.576;2023-07-20T10:49:03;100361.78;;;26.09;33.69
38227;BME280;24026;49.446;8.576;2023-07-20T10:51:25;100363.38;;;26.10;33.61
38227;BME280;24026;49.446;8.576;2023-07-20T10:53:50;100352.56;;;26.13;33.60
38227;BME280;24026;49.446;8.576;2023-07-20T10:56:15;100348.34;;;26.16;33.66
38227;BME280;24026;49.446;8.576;2023-07-20T10:58:40;100347.66;;;26.19;33.37
38227;BME280;24026;49.446;8.576;2023-07-20T11:01:04;100337.19;;;26.21;33.21
38227;BME280;24026;49.446;8.576;2023-07-20T11:03:30;100338.00;;;26.21;33.26
38227;BME280;24026;49.446;8.576;2023-07-20T11:05:52;100330.63;;;26.22;33.22
38227;BME280;24026;49.446;8.576;2023-07-20T11:08:39;100331.75;;;26.21;32.98
38227;BME280;24026;49.446;8.576;2023-07-20T11:11:26;100331.75;;;26.21;32.92
38227;BME280;24026;49.446;8.576;2023-07-20T11:14:00;100328.78;;;26.26;33.14
38227;BME280;24026;49.446;8.576;2023-07-20T11:16:34;100330.81;;;26.29;33.04
38227;BME280;24026;49.446;8.576;2023-07-20T11:18:55;100327.38;;;26.32;32.95
38227;BME280;24026;49.446;8.576;2023-07-20T11:21:16;100324.75;;;26.36;32.73
38227;BME280;24026;49.446;8.576;2023-07-20T11:23:38;100326.00;;;26.38;32.64
38227;BME280;24026;49.446;8.576;2023-07-20T11:25:58;100322.56;;;26.41;32.51
38227;BME280;24026;49.446;8.576;2023-07-20T11:28:20;100324.94;;;26.43;32.71
38227;BME280;24026;49.446;8.576;2023-07-20T11:30:40;100320.72;;;26.46;32.80
38227;BME280;24026;49.446;8.576;2023-07-20T11:33:01;100319.59;;;26.47;32.63
38227;BME280;24026;49.446;8.576;2023-07-20T11:35:21;100312.63;;;26.49;32.74
38227;BME280;24026;49.446;8.576;2023-07-20T11:37:41;100313.06;;;26.51;32.49
38227;BME280;24026;49.446;8.576;2023-07-20T11:40:02;100312.72;;;26.53;32.37
38227;BME280;24026;49.446;8.576;2023-07-20T11:42:24;100311.59;;;26.54;32.52
38227;BME280;24026;49.446;8.576;2023-07-20T11:44:45;100304.19;;;26.54;32.29
38227;BME280;24026;49.446;8.576;2023-07-20T11:47:11;100297.59;;;26.55;32.11
38227;BME280;24026;49.446;8.576;2023-07-20T11:49:36;100295.66;;;26.56;32.13
38227;BME280;24026;49.446;8.576;2023-07-20T11:51:57;100298.81;;;26.58;31.95
38227;BME280;24026;49.446;8.576;2023-07-20T11:54:18;100300.84;;;26.61;31.94
38227;BME280;24026;49.446;8.576;2023-07-20T11:56:41;100291.22;;;26.64;31.89
38227;BME280;24026;49.446;8.576;2023-07-20T11:59:02;100290.88;;;26.65;32.03
38227;BME280;24026;49.446;8.576;2023-07-20T12:01:24;100289.28;;;26.64;31.71
38227;BME280;24026;49.446;8.576;2023-07-20T12:03:49;100291.31;;;26.67;31.74
38227;BME280;24026;49.446;8.576;2023-07-20T12:06:10;100287.88;;;26.70;31.87
38227;BME280;24026;49.446;8.576;2023-07-20T12:08:31;100282.06;;;26.72;31.83
38227;BME280;24026;49.446;8.576;2023-07-20T12:10:52;100273.97;;;26.75;31.44
38227;BME280;24026;49.446;8.576;2023-07-20T12:13:12;100278.66;;;26.75;31.47
38227;BME280;24026;49.446;8.576;2023-07-20T12:15:32;100277.47;;;26.76;31.36
38227;BME280;24026;49.446;8.576;2023-07-20T12:17:55;100277.56;;;26.79;31.31
38227;BME280;24026;49.446;8.576;2023-07-20T12:20:31;100267.13;;;26.82;31.23
38227;BME280;24026;49.446;8.576;2023-07-20T12:22:52;100269.91;;;26.85;31.31
38227;BME280;24026;49.446;8.576;2023-07-20T12:25:13;100263.41;;;26.90;30.78
38227;BME280;24026;49.446;8.576;2023-07-20T12:27:36;100267.00;;;26.94;30.89
38227;BME280;24026;49.446;8.576;2023-07-20T12:29:57;100267.84;;;26.98;31.03
38227;BME280;24026;49.446;8.576;2023-07-20T12:32:18;100265.22;;;27.02;31.28
38227;BME280;24026;49.446;8.576;2023-07-20T12:34:38;100254.75;;;27.04;31.11
38227;BME280;24026;49.446;8.576;2023-07-20T12:36:59;100258.69;;;27.06;31.19
38227;BME280;24026;49.446;8.576;2023-07-20T12:39:22;100260.28;;;27.07;31.14
38227;BME280;24026;49.446;8.576;2023-07-20T12:41:42;100251.75;;;27.09;31.02
38227;BME280;24026;49.446;8.576;2023-07-20T12:44:03;100247.50;;;27.11;30.93
38227;BME280;24026;49.446;8.576;2023-07-20T12:46:24;100249.09;;;27.12;30.74
38227;BME280;24026;49.446;8.576;2023-07-20T12:48:44;100255.41;;;27.16;30.61
38227;BME280;24026;49.446;8.576;2023-07-20T12:51:05;100251.97;;;27.20;30.79
38227;BME280;24026;49.446;8.576;2023-07-20T12:53:25;100247.75;;;27.22;30.33
38227;BME280;24026;49.446;8.576;2023-07-20T12:55:46;100248.22;;;27.28;30.45
38227;BME280;24026;49.446;8.576;2023-07-20T12:58:07;100246.78;;;27.30;30.68
38227;BME280;24026;49.446;8.576;2023-07-20T13:00:28;100243.34;;;27.33;30.19
38227;BME280;24026;49.446;8.576;2023-07-20T13:02:49;100235.22;;;27.37;30.16
38227;BME280;24026;49.446;8.576;2023-07-20T13:05:09;100230.59;;;27.41;29.92
38227;BME280;24026;49.446;8.576;2023-07-20T13:07:34;100227.94;;;27.45;30.16
38227;BME280;24026;49.446;8.576;2023-07-20T13:09:55;100221.00;;;27.47;30.09
38227;BME280;24026;49.446;8.576;2023-07-20T13:12:15;100230.03;;;27.51;29.98
38227;BME280;24026;49.446;8.576;2023-07-20T13:14:36;100227.75;;;27.53;30.13
38227;BME280;24026;49.446;8.576;2023-07-20T13:16:57;100221.56;;;27.57;29.88
38227;BME280;24026;49.446;8.576;2023-07-20T13:19:17;100223.91;;;27.58;29.78
38227;BME280;24026;49.446;8.576;2023-07-20T13:21:37;100214.59;;;27.59;29.68
38227;BME280;24026;49.446;8.576;2023-07-20T13:23:58;100220.47;;;27.61;29.56
38227;BME280;24026;49.446;8.576;2023-07-20T13:26:18;100207.63;;;27.62;29.82
38227;BME280;24026;49.446;8.576;2023-07-20T13:28:39;100212.72;;;27.63;29.94
38227;BME280;24026;49.446;8.576;2023-07-20T13:30:59;100211.19;;;27.66;29.61
38227;BME280;24026;49.446;8.576;2023-07-20T13:33:20;100210.06;;;27.67;29.35
38227;BME280;24026;49.446;8.576;2023-07-20T13:35:40;100209.34;;;27.70;29.21
38227;BME280;24026;49.446;8.576;2023-07-20T13:38:01;100207.81;;;27.72;29.72
38227;BME280;24026;49.446;8.576;2023-07-20T13:40:22;100197.69;;;27.73;29.32
38227;BME280;24026;49.446;8.576;2023-07-20T13:42:43;100199.69;;;27.76;29.27
38227;BME280;24026;49.446;8.576;2023-07-20T13:45:04;100196.59;;;27.78;29.44
38227;BME280;24026;49.446;8.576;2023-07-20T13:47:26;100203.28;;;27.80;29.20
38227;BME280;24026;49.446;8.576;2023-07-20T13:49:47;100200.19;;;27.82;29.35
38227;BME280;24026;49.446;8.576;2023-07-20T13:52:07;100198.25;;;27.82;29.28
38227;BME280;24026;49.446;8.576;2023-07-20T13:54:28;100197.47;;;27.82;29.20
38227;BME280;24026;49.446;8.576;2023-07-20T13:56:48;100189.28;;;27.82;28.93
38227;BME280;24026;49.446;8.576;2023-07-20T13:59:09;100187.69;;;27.81;29.35
38227;BME280;24026;49.446;8.576;2023-07-20T14:01:29;100191.19;;;27.81;28.80
38227;BME280;24026;49.446;8.576;2023-07-20T14:03:51;100192.78;;;27.82;29.11
38227;BME280;24026;49.446;8.576;2023-07-20T14:06:11;100188.53;;;27.85;29.08
38227;BME280;24026;49.446;8.576;2023-07-20T14:08:33;100190.88;;;27.86;28.92
38227;BME280;24026;49.446;8.576;2023-07-20T14:10:53;100183.94;;;27.89;29.07
38227;BME280;24026;49.446;8.576;2023-07-20T14:13:14;100178.88;;;27.91;28.82
38227;BME280;24026;49.446;8.576;2023-07-20T14:15:35;100173.09;;;27.93;28.87
38227;BME280;24026;49.446;8.576;2023-07-20T14:17:55;100178.59;;;27.96;28.64
38227;BME280;24026;49.446;8.576;2023-07-20T14:20:15;100182.94;;;27.97;29.06
38227;BME280;24026;49.446;8.576;2023-07-20T14:22:36;100179.84;;;27.99;28.52
38227;BME280;24026;49.446;8.576;2023-07-20T14:24:57;100177.09;;;27.99;28.96
38227;BME280;24026;49.446;8.576;2023-07-20T14:27:17;100179.03;;;27.98;28.80
38227;BME280;24026;49.446;8.576;2023-07-20T14:29:38;100165.00;;;28.00;28.81
38227;BME280;24026;49.446;8.576;2023-07-20T14:31:58;100173.19;;;28.00;28.79
38227;BME280;24026;49.446;8.576;2023-07-20T14:34:19;100167.38;;;28.01;28.59
38227;BME280;24026;49.446;8.576;2023-07-20T14:36:39;100161.91;;;28.01;28.86
38227;BME280;24026;49.446;8.576;2023-07-20T14:38:59;100158.41;;;28.01;28.54
38227;BME280;24026;49.446;8.576;2023-07-20T14:41:20;100149.44;;;28.00;28.53
38227;BME280;24026;49.446;8.576;2023-07-20T14:43:40;100160.34;;;28.00;28.52
38227;BME280;24026;49.446;8.576;2023-07-20T14:46:01;100154.53;;;28.02;28.78
38227;BME280;24026;49.446;8.576;2023-07-20T14:48:21;100159.19;;;28.01;28.41
38227;BME280;24026;49.446;8.576;2023-07-20T14:50:42;100158.81;;;28.03;27.87
38227;BME280;24026;49.446;8.576;2023-07-20T14:53:05;100147.91;;;28.03;27.68
38227;BME280;24026;49.446;8.576;2023-07-20T14:55:26;100144.81;;;28.04;28.18
38227;BME280;24026;49.446;8.576;2023-07-20T14:57:48;100143.31;;;28.07;27.68
38227;BME280;24026;49.446;8.576;2023-07-20T15:00:08;100138.25;;;28.09;27.58
38227;BME280;24026;49.446;8.576;2023-07-20T15:02:30;100141.75;;;28.09;27.83
38227;BME280;24026;49.446;8.576;2023-07-20T15:04:51;100143.00;;;28.12;27.42
38227;BME280;24026;49.446;8.576;2023-07-20T15:07:13;100138.31;;;28.13;27.40
38227;BME280;24026;49.446;8.576;2023-07-20T15:09:33;100146.50;;;28.13;27.70
38227;BME280;24026;49.446;8.576;2023-07-20T15:11:55;100139.53;;;28.15;27.20
38227;BME280;24026;49.446;8.576;2023-07-20T15:14:15;100136.78;;;28.15;26.96
38227;BME280;24026;49.446;8.576;2023-07-20T15:16:36;100131.75;;;28.17;26.87
38227;BME280;24026;49.446;8.576;2023-07-20T15:18:57;100126.28;;;28.17;27.40
38227;BME280;24026;49.446;8.576;2023-07-20T15:21:17;100133.31;;;28.18;27.29
38227;BME280;24026;49.446;8.576;2023-07-20T15:23:38;100126.69;;;28.19;27.15
38227;BME280;24026;49.446;8.576;2023-07-20T15:25:58;100125.97;;;28.22;27.05
38227;BME280;24026;49.446;8.576;2023-07-20T15:28:19;100127.56;;;28.23;27.54
38227;BME280;24026;49.446;8.576;2023-07-20T15:30:39;100115.44;;;28.24;27.38
38227;BME280;24026;49.446;8.576;2023-07-20T15:32:59;100118.97;;;28.25;27.31
38227;BME280;24026;49.446;8.576;2023-07-20T15:35:20;100115.44;;;28.24;27.52
38227;BME280;24026;49.446;8.576;2023-07-20T15:37:40;100108.03;;;28.25;27.31
38227;BME280;24026;49.446;8.576;2023-07-20T15:40:01;100105.31;;;28.25;27.69
38227;BME280;24026;49.446;8.576;2023-07-20T15:42:24;100113.13;;;28.26;27.44
38227;BME280;24026;49.446;8.576;2023-07-20T15:44:47;100103.78;;;28.27;27.33
38227;BME280;24026;49.446;8.576;2023-07-20T15:47:07;100098.34;;;28.27;27.30
38227;BME280;24026;49.446;8.576;2023-07-20T15:49:28;100097.19;;;28.28;27.54
38227;BME280;24026;49.446;8.576;2023-07-20T15:51:48;100096.81;;;28.30;27.50
38227;BME280;24026;49.446;8.576;2023-07-20T15:54:09;100093.28;;;28.30;27.43
38227;BME280;24026;49.446;8.576;2023-07-20T15:56:30;100092.13;;;28.31;27.76
38227;BME280;24026;49.446;8.576;2023-07-20T15:58:51;100086.66;;;28.31;27.47
38227;BME280;24026;49.446;8.576;2023-07-20T16:01:11;100091.34;;;28.30;27.62
38227;BME280;24026;49.446;8.576;2023-07-20T16:03:32;100083.16;;;28.30;27.24
38227;BME280;24026;49.446;8.576;2023-07-20T16:05:53;100085.09;;;28.30;27.34
38227;BME280;24026;49.446;8.576;2023-07-20T16:08:13;100079.63;;;28.30;27.67
38227;BME280;24026;49.446;8.576;2023-07-20T16:10:33;100075.34;;;28.28;27.15
38227;BME280;24026;49.446;8.576;2023-07-20T16:12:54;100074.97;;;28.30;27.25
38227;BME280;24026;49.446;8.576;2023-07-20T16:15:14;100070.28;;;28.31;27.27
38227;BME280;24026;49.446;8.576;2023-07-20T16:17:35;100071.84;;;28.32;27.38
38227;BME280;24026;49.446;8.576;2023-07-20T16:19:55;100070.28;;;28.31;27.00
38227;BME280;24026;49.446;8.576;2023-07-20T16:22:16;100071.84;;;28.32;27.44
38227;BME280;24026;49.446;8.576;2023-07-20T16:24:36;100072.66;;;28.32;27.16
38227;BME280;24026;49.446;8.576;2023-07-20T16:26:56;100070.69;;;28.33;27.07
38227;BME280;24026;49.446;8.576;2023-07-20T16:29:17;100067.97;;;28.33;27.15
38227;BME280;24026;49.446;8.576;2023-07-20T16:31:37;100069.09;;;28.32;26.93
38227;BME280;24026;49.446;8.576;2023-07-20T16:33:57;100069.09;;;28.32;27.10
38227;BME280;24026;49.446;8.576;2023-07-20T16:36:18;100069.50;;;28.30;27.28
38227;BME280;24026;49.446;8.576;2023-07-20T16:38:39;100065.19;;;28.29;27.31
38227;BME280;24026;49.446;8.576;2023-07-20T16:40:59;100063.59;;;28.28;27.16
38227;BME280;24026;49.446;8.576;2023-07-20T16:43:19;100058.13;;;28.28;27.37
38227;BME280;24026;49.446;8.576;2023-07-20T16:45:40;100057.72;;;28.26;26.86
38227;BME280;24026;49.446;8.576;2023-07-20T16:48:00;100054.22;;;28.25;27.39
38227;BME280;24026;49.446;8.576;2023-07-20T16:50:21;100050.69;;;28.25;27.16
38227;BME280;24026;49.446;8.576;2023-07-20T16:52:42;100044.44;;;28.24;27.37
38227;BME280;24026;49.446;8.576;2023-07-20T16:55:02;100051.84;;;28.24;27.12
38227;BME280;24026;49.446;8.576;2023-07-20T16:57:23;100049.13;;;28.24;27.27
38227;BME280;24026;49.446;8.576;2023-07-20T16:59:43;100057.69;;;28.22;27.16
38227;BME280;24026;49.446;8.576;2023-07-20T17:02:04;100047.13;;;28.21;27.17
38227;BME280;24026;49.446;8.576;2023-07-20T17:04:24;100046.34;;;28.20;27.27
38227;BME280;24026;49.446;8.576;2023-07-20T17:06:45;100041.66;;;28.21;27.36
38227;BME280;24026;49.446;8.576;2023-07-20T17:09:08;100038.94;;;28.21;27.41
38227;BME280;24026;49.446;8.576;2023-07-20T17:11:29;100038.94;;;28.21;27.19
38227;BME280;24026;49.446;8.576;2023-07-20T17:13:49;100036.19;;;28.21;27.52
38227;BME280;24026;49.446;8.576;2023-07-20T17:16:10;100036.56;;;28.19;27.11
38227;BME280;24026;49.446;8.576;2023-07-20T17:18:30;100028.75;;;28.18;27.58
38227;BME280;24026;49.446;8.576;2023-07-20T17:20:51;100035.78;;;28.19;27.28
38227;BME280;24026;49.446;8.576;2023-07-20T17:23:12;100033.41;;;28.17;27.47
38227;BME280;24026;49.446;8.576;2023-07-20T17:25:32;100036.50;;;28.16;27.41
38227;BME280;24026;49.446;8.576;2023-07-20T17:27:53;100041.19;;;28.15;27.33
38227;BME280;24026;49.446;8.576;2023-07-20T17:30:14;100044.31;;;28.14;27.57
38227;BME280;24026;49.446;8.576;2023-07-20T17:32:35;100038.03;;;28.13;27.71
38227;BME280;24026;49.446;8.576;2023-07-20T17:34:55;100035.66;;;28.12;27.67
38227;BME280;24026;49.446;8.576;2023-07-20T17:37:16;100035.25;;;28.09;27.82
38227;BME280;24026;49.446;8.576;2023-07-20T17:39:38;100034.47;;;28.09;27.55
38227;BME280;24026;49.446;8.576;2023-07-20T17:41:59;100038.34;;;28.08;27.37
38227;BME280;24026;49.446;8.576;2023-07-20T17:44:19;100032.47;;;28.06;27.50
38227;BME280;24026;49.446;8.576;2023-07-20T17:46:40;100029.75;;;28.06;27.52
38227;BME280;24026;49.446;8.576;2023-07-20T17:49:00;100030.88;;;28.05;27.60
38227;BME280;24026;49.446;8.576;2023-07-20T17:51:22;100030.47;;;28.03;28.04
38227;BME280;24026;49.446;8.576;2023-07-20T17:53:43;100037.88;;;28.02;27.92
38227;BME280;24026;49.446;8.576;2023-07-20T17:56:03;100033.56;;;28.01;27.86
38227;BME280;24026;49.446;8.576;2023-07-20T17:58:25;100036.66;;;28.00;27.60
38227;BME280;24026;49.446;8.576;2023-07-20T18:00:46;100026.13;;;27.98;27.78
38227;BME280;24026;49.446;8.576;2023-07-20T18:03:10;100034.31;;;27.98;27.92
38227;BME280;24026;49.446;8.576;2023-07-20T18:05:34;100033.91;;;27.96;28.09
38227;BME280;24026;49.446;8.576;2023-07-20T18:07:55;100035.84;;;27.96;27.72
38227;BME280;24026;49.446;8.576;2023-07-20T18:10:15;100029.97;;;27.94;27.83
38227;BME280;24026;49.446;8.576;2023-07-20T18:12:36;100029.97;;;27.94;28.05
38227;BME280;24026;49.446;8.576;2023-07-20T18:14:56;100033.84;;;27.93;28.01
38227;BME280;24026;49.446;8.576;2023-07-20T18:17:17;100036.91;;;27.91;28.35
38227;BME280;24026;49.446;8.576;2023-07-20T18:19:37;100033.41;;;27.90;28.18
38227;BME280;24026;49.446;8.576;2023-07-20T18:21:58;100040.81;;;27.90;28.03
38227;BME280;24026;49.446;8.576;2023-07-20T18:24:18;100037.63;;;27.88;28.08
38227;BME280;24026;49.446;8.576;2023-07-20T18:26:38;100038.00;;;27.86;28.49
38227;BME280;24026;49.446;8.576;2023-07-20T18:28:59;100034.50;;;27.86;28.27
38227;BME280;24026;49.446;8.576;2023-07-20T18:31:21;100029.41;;;27.84;28.57
38227;BME280;24026;49.446;8.576;2023-07-20T18:33:42;100033.31;;;27.83;28.24
38227;BME280;24026;49.446;8.576;2023-07-20T18:36:02;100030.56;;;27.83;28.07
38227;BME280;24026;49.446;8.576;2023-07-20T18:38:23;100038.31;;;27.81;28.56
38227;BME280;24026;49.446;8.576;2023-07-20T18:40:43;100032.88;;;27.81;28.43
38227;BME280;24026;49.446;8.576;2023-07-20T18:43:03;100037.53;;;27.81;28.36
38227;BME280;24026;49.446;8.576;2023-07-20T18:45:24;100031.66;;;27.79;28.33
38227;BME280;24026;49.446;8.576;2023-07-20T18:47:44;100045.31;;;27.79;28.69
38227;BME280;24026;49.446;8.576;2023-07-20T18:50:07;100037.50;;;27.77;28.06
38227;BME280;24026;49.446;8.576;2023-07-20T18:52:30;100035.13;;;27.76;28.38
38227;BME280;24026;49.446;8.576;2023-07-20T18:54:50;100031.63;;;27.75;28.54
38227;BME280;24026;49.446;8.576;2023-07-20T18:57:10;100033.91;;;27.73;28.54
38227;BME280;24026;49.446;8.576;2023-07-20T18:59:33;100031.19;;;27.73;28.37
38227;BME280;24026;49.446;8.576;2023-07-20T19:01:53;100032.34;;;27.72;28.77
38227;BME280;24026;49.446;8.576;2023-07-20T19:04:14;100033.50;;;27.71;28.83
38227;BME280;24026;49.446;8.576;2023-07-20T19:06:34;100037.38;;;27.70;28.89